sensor_id;sensor_type;location;lat;lon;timestamp;temperature;humidity
14877;DHT22;22152;48.158;17.118;2022-12-07T00:01:06;7.00;79.70
14877;DHT22;22152;48.158;17.118;2022-12-07T00:03:33;7.00;79.60
14877;DHT22;22152;48.158;17.118;2022-12-07T00:06:00;7.00;79.80
14877;DHT22;22152;48.158;17.118;2022-12-07T00:08:26;7.10;79.70
14877;DHT22;22152;48.158;17.118;2022-12-07T00:10:52;7.00;79.70
14877;DHT22;22152;48.158;17.118;2022-12-07T00:13:18;7.00;79.80
14877;DHT22;22152;48.158;17.118;2022-12-07T00:15:44;7.00;79.80
14877;DHT22;22152;48.158;17.118;2022-12-07T00:18:10;7.10;80.00
14877;DHT22;22152;48.158;17.118;2022-12-07T00:20:36;7.10;79.90
14877;DHT22;22152;48.158;17.118;2022-12-07T00:23:02;7.10;79.50
14877;DHT22;22152;48.158;17.118;2022-12-07T00:25:28;7.20;79.90
14877;DHT22;22152;48.158;17.118;2022-12-07T00:27:55;7.20;79.60
14877;DHT22;22152;48.158;17.118;2022-12-07T00:30:23;7.20;79.50
14877;DHT22;22152;48.158;17.118;2022-12-07T00:32:49;7.10;79.40
14877;DHT22;22152;48.158;17.118;2022-12-07T00:35:15;7.10;79.60
14877;DHT22;22152;48.158;17.118;2022-12-07T00:37:41;7.10;79.90
14877;DHT22;22152;48.158;17.118;2022-12-07T00:40:07;7.10;80.00
14877;DHT22;22152;48.158;17.118;2022-12-07T00:42:34;7.10;79.90
14877;DHT22;22152;48.158;17.118;2022-12-07T00:44:59;7.20;79.80
14877;DHT22;22152;48.158;17.118;2022-12-07T00:47:25;7.20;79.50
14877;DHT22;22152;48.158;17.118;2022-12-07T00:49:51;7.20;79.50
14877;DHT22;22152;48.158;17.118;2022-12-07T00:52:17;7.10;79.50
14877;DHT22;22152;48.158;17.118;2022-12-07T00:54:42;7.10;79.60
14877;DHT22;22152;48.158;17.118;2022-12-07T00:57:08;7.00;80.40
14877;DHT22;22152;48.158;17.118;2022-12-07T00:59:34;7.00;79.70
14877;DHT22;22152;48.158;17.118;2022-12-07T01:02:00;7.00;79.90
14877;DHT22;22152;48.158;17.118;2022-12-07T01:04:26;7.00;79.90
14877;DHT22;22152;48.158;17.118;2022-12-07T01:06:51;7.00;79.10
14877;DHT22;22152;48.158;17.118;2022-12-07T01:09:17;7.00;79.00
14877;DHT22;22152;48.158;17.118;2022-12-07T01:11:43;7.10;78.50
14877;DHT22;22152;48.158;17.118;2022-12-07T01:14:09;7.20;77.90
14877;DHT22;22152;48.158;17.118;2022-12-07T01:16:35;7.30;77.30
14877;DHT22;22152;48.158;17.118;2022-12-07T01:19:02;7.30;76.80
14877;DHT22;22152;48.158;17.118;2022-12-07T01:21:32;7.40;76.30
14877;DHT22;22152;48.158;17.118;2022-12-07T01:24:08;7.40;75.70
14877;DHT22;22152;48.158;17.118;2022-12-07T01:26:35;7.50;75.80
14877;DHT22;22152;48.158;17.118;2022-12-07T01:29:01;7.50;75.90
14877;DHT22;22152;48.158;17.118;2022-12-07T01:31:27;7.60;75.90
14877;DHT22;22152;48.158;17.118;2022-12-07T01:33:56;7.60;75.30
14877;DHT22;22152;48.158;17.118;2022-12-07T01:36:35;7.60;74.90
14877;DHT22;22152;48.158;17.118;2022-12-07T01:39:04;7.60;74.90
14877;DHT22;22152;48.158;17.118;2022-12-07T01:41:35;7.60;74.70
14877;DHT22;22152;48.158;17.118;2022-12-07T01:52:15;7.60;74.70
14877;DHT22;22152;48.158;17.118;2022-12-07T01:54:45;7.60;74.40
14877;DHT22;22152;48.158;17.118;2022-12-07T01:57:15;7.50;74.20
14877;DHT22;22152;48.158;17.118;2022-12-07T01:59:43;7.60;74.60
14877;DHT22;22152;48.158;17.118;2022-12-07T02:02:18;7.60;74.70
14877;DHT22;22152;48.158;17.118;2022-12-07T02:04:46;7.60;74.60
14877;DHT22;22152;48.158;17.118;2022-12-07T02:07:11;7.60;74.50
14877;DHT22;22152;48.158;17.118;2022-12-07T02:09:38;7.60;74.40
14877;DHT22;22152;48.158;17.118;2022-12-07T02:12:04;7.50;74.20
14877;DHT22;22152;48.158;17.118;2022-12-07T02:14:30;7.40;74.20
14877;DHT22;22152;48.158;17.118;2022-12-07T02:17:21;7.30;75.20
14877;DHT22;22152;48.158;17.118;2022-12-07T02:23:12;7.10;74.60
14877;DHT22;22152;48.158;17.118;2022-12-07T02:29:13;6.90;75.40
14877;DHT22;22152;48.158;17.118;2022-12-07T02:35:04;6.80;75.20
14877;DHT22;22152;48.158;17.118;2022-12-07T02:40:36;6.90;75.00
14877;DHT22;22152;48.158;17.118;2022-12-07T02:43:16;6.80;74.70
14877;DHT22;22152;48.158;17.118;2022-12-07T02:45:46;6.80;74.80
14877;DHT22;22152;48.158;17.118;2022-12-07T02:48:16;6.70;74.80
14877;DHT22;22152;48.158;17.118;2022-12-07T02:50:49;6.70;74.80
14877;DHT22;22152;48.158;17.118;2022-12-07T02:53:35;6.70;75.20
14877;DHT22;22152;48.158;17.118;2022-12-07T03:02:21;6.60;76.00
14877;DHT22;22152;48.158;17.118;2022-12-07T03:05:12;6.70;76.20
14877;DHT22;22152;48.158;17.118;2022-12-07T03:07:58;6.80;76.10
14877;DHT22;22152;48.158;17.118;2022-12-07T03:13:39;6.90;76.40
14877;DHT22;22152;48.158;17.118;2022-12-07T03:16:17;6.90;76.60
14877;DHT22;22152;48.158;17.118;2022-12-07T03:19:07;6.90;76.60
14877;DHT22;22152;48.158;17.118;2022-12-07T03:21:41;6.90;76.40
14877;DHT22;22152;48.158;17.118;2022-12-07T03:24:13;7.00;76.50
14877;DHT22;22152;48.158;17.118;2022-12-07T03:26:45;7.00;76.50
14877;DHT22;22152;48.158;17.118;2022-12-07T03:29:23;7.00;76.40
14877;DHT22;22152;48.158;17.118;2022-12-07T03:32:05;7.10;77.00
14877;DHT22;22152;48.158;17.118;2022-12-07T03:34:39;7.10;76.10
14877;DHT22;22152;48.158;17.118;2022-12-07T03:40:34;7.10;76.10
14877;DHT22;22152;48.158;17.118;2022-12-07T03:43:03;7.10;77.10
14877;DHT22;22152;48.158;17.118;2022-12-07T03:45:42;7.10;76.10
14877;DHT22;22152;48.158;17.118;2022-12-07T03:48:34;7.20;76.40
14877;DHT22;22152;48.158;17.118;2022-12-07T03:51:13;7.20;76.10
14877;DHT22;22152;48.158;17.118;2022-12-07T03:57:21;7.30;75.80
14877;DHT22;22152;48.158;17.118;2022-12-07T03:59:49;7.30;76.00
14877;DHT22;22152;48.158;17.118;2022-12-07T04:02:15;7.30;75.90
14877;DHT22;22152;48.158;17.118;2022-12-07T04:04:42;7.30;76.00
14877;DHT22;22152;48.158;17.118;2022-12-07T04:07:09;7.40;75.70
14877;DHT22;22152;48.158;17.118;2022-12-07T04:09:35;7.50;75.70
14877;DHT22;22152;48.158;17.118;2022-12-07T04:12:00;7.50;75.60
14877;DHT22;22152;48.158;17.118;2022-12-07T04:14:26;7.50;75.50
14877;DHT22;22152;48.158;17.118;2022-12-07T04:16:55;7.60;75.50
14877;DHT22;22152;48.158;17.118;2022-12-07T04:19:27;7.60;75.30
14877;DHT22;22152;48.158;17.118;2022-12-07T04:21:55;7.60;75.10
14877;DHT22;22152;48.158;17.118;2022-12-07T04:24:22;7.60;75.20
14877;DHT22;22152;48.158;17.118;2022-12-07T04:26:48;7.70;75.20
14877;DHT22;22152;48.158;17.118;2022-12-07T04:29:15;7.70;75.00
14877;DHT22;22152;48.158;17.118;2022-12-07T04:31:41;7.60;74.40
14877;DHT22;22152;48.158;17.118;2022-12-07T04:34:07;7.60;74.40
14877;DHT22;22152;48.158;17.118;2022-12-07T04:36:34;7.50;74.60
14877;DHT22;22152;48.158;17.118;2022-12-07T04:39:03;7.60;75.10
14877;DHT22;22152;48.158;17.118;2022-12-07T04:41:29;7.60;75.10
14877;DHT22;22152;48.158;17.118;2022-12-07T04:44:00;7.60;74.80
14877;DHT22;22152;48.158;17.118;2022-12-07T04:46:29;7.60;74.20
14877;DHT22;22152;48.158;17.118;2022-12-07T04:48:56;7.60;74.40
14877;DHT22;22152;48.158;17.118;2022-12-07T04:51:25;7.60;74.50
14877;DHT22;22152;48.158;17.118;2022-12-07T04:53:52;7.60;74.60
14877;DHT22;22152;48.158;17.118;2022-12-07T04:56:20;7.60;74.40
14877;DHT22;22152;48.158;17.118;2022-12-07T04:58:47;7.60;74.40
14877;DHT22;22152;48.158;17.118;2022-12-07T05:01:15;7.60;73.90
14877;DHT22;22152;48.158;17.118;2022-12-07T05:03:41;7.50;74.00
14877;DHT22;22152;48.158;17.118;2022-12-07T05:06:08;7.50;74.00
14877;DHT22;22152;48.158;17.118;2022-12-07T05:08:35;7.50;74.10
14877;DHT22;22152;48.158;17.118;2022-12-07T05:11:02;7.50;74.00
14877;DHT22;22152;48.158;17.118;2022-12-07T05:13:28;7.50;73.80
14877;DHT22;22152;48.158;17.118;2022-12-07T05:15:54;7.50;73.90
14877;DHT22;22152;48.158;17.118;2022-12-07T05:18:23;7.50;74.00
14877;DHT22;22152;48.158;17.118;2022-12-07T05:21:06;7.60;73.80
14877;DHT22;22152;48.158;17.118;2022-12-07T05:23:32;7.50;73.40
14877;DHT22;22152;48.158;17.118;2022-12-07T05:25:58;7.50;73.80
14877;DHT22;22152;48.158;17.118;2022-12-07T05:28:24;7.50;73.90
14877;DHT22;22152;48.158;17.118;2022-12-07T05:30:50;7.50;74.40
14877;DHT22;22152;48.158;17.118;2022-12-07T05:33:22;7.40;73.60
14877;DHT22;22152;48.158;17.118;2022-12-07T05:35:59;7.40;73.90
14877;DHT22;22152;48.158;17.118;2022-12-07T05:38:31;7.40;73.70
14877;DHT22;22152;48.158;17.118;2022-12-07T05:41:05;7.30;74.10
14877;DHT22;22152;48.158;17.118;2022-12-07T05:43:35;7.30;74.20
14877;DHT22;22152;48.158;17.118;2022-12-07T05:46:00;7.30;73.80
14877;DHT22;22152;48.158;17.118;2022-12-07T05:48:26;7.30;74.10
14877;DHT22;22152;48.158;17.118;2022-12-07T05:50:52;7.30;74.20
14877;DHT22;22152;48.158;17.118;2022-12-07T05:53:19;7.30;74.20
14877;DHT22;22152;48.158;17.118;2022-12-07T05:55:45;7.30;74.20
14877;DHT22;22152;48.158;17.118;2022-12-07T05:58:11;7.30;74.10
14877;DHT22;22152;48.158;17.118;2022-12-07T06:00:55;7.30;74.00
14877;DHT22;22152;48.158;17.118;2022-12-07T06:03:22;7.30;74.20
14877;DHT22;22152;48.158;17.118;2022-12-07T06:05:48;7.30;74.00
14877;DHT22;22152;48.158;17.118;2022-12-07T06:08:14;7.40;73.90
14877;DHT22;22152;48.158;17.118;2022-12-07T06:10:41;7.40;73.70
14877;DHT22;22152;48.158;17.118;2022-12-07T06:13:08;7.40;73.40
14877;DHT22;22152;48.158;17.118;2022-12-07T06:15:37;7.40;73.50
14877;DHT22;22152;48.158;17.118;2022-12-07T06:18:03;7.40;73.90
14877;DHT22;22152;48.158;17.118;2022-12-07T06:20:29;7.40;74.00
14877;DHT22;22152;48.158;17.118;2022-12-07T06:22:55;7.40;74.00
14877;DHT22;22152;48.158;17.118;2022-12-07T06:25:21;7.40;73.90
14877;DHT22;22152;48.158;17.118;2022-12-07T06:27:46;7.40;73.90
14877;DHT22;22152;48.158;17.118;2022-12-07T06:30:12;7.40;74.20
14877;DHT22;22152;48.158;17.118;2022-12-07T06:32:38;7.40;74.30
14877;DHT22;22152;48.158;17.118;2022-12-07T06:35:05;7.40;74.50
14877;DHT22;22152;48.158;17.118;2022-12-07T06:37:30;7.40;74.40
14877;DHT22;22152;48.158;17.118;2022-12-07T06:39:56;7.30;74.80
14877;DHT22;22152;48.158;17.118;2022-12-07T06:42:22;7.30;75.00
14877;DHT22;22152;48.158;17.118;2022-12-07T06:44:48;7.30;75.20
14877;DHT22;22152;48.158;17.118;2022-12-07T06:47:14;7.30;75.60
14877;DHT22;22152;48.158;17.118;2022-12-07T06:49:40;7.30;75.70
14877;DHT22;22152;48.158;17.118;2022-12-07T06:52:06;7.30;75.60
14877;DHT22;22152;48.158;17.118;2022-12-07T06:54:32;7.40;75.60
14877;DHT22;22152;48.158;17.118;2022-12-07T06:56:58;7.40;75.50
14877;DHT22;22152;48.158;17.118;2022-12-07T06:59:23;7.50;75.30
14877;DHT22;22152;48.158;17.118;2022-12-07T07:01:49;7.60;75.40
14877;DHT22;22152;48.158;17.118;2022-12-07T07:04:15;7.60;75.00
14877;DHT22;22152;48.158;17.118;2022-12-07T07:06:41;7.50;75.00
14877;DHT22;22152;48.158;17.118;2022-12-07T07:09:06;7.50;75.10
14877;DHT22;22152;48.158;17.118;2022-12-07T07:11:32;7.50;75.50
14877;DHT22;22152;48.158;17.118;2022-12-07T07:13:58;7.60;75.40
14877;DHT22;22152;48.158;17.118;2022-12-07T07:16:28;7.60;75.30
14877;DHT22;22152;48.158;17.118;2022-12-07T07:18:56;7.60;75.40
14877;DHT22;22152;48.158;17.118;2022-12-07T07:21:22;7.60;75.40
14877;DHT22;22152;48.158;17.118;2022-12-07T07:23:48;7.60;75.50
14877;DHT22;22152;48.158;17.118;2022-12-07T07:26:13;7.70;75.60
14877;DHT22;22152;48.158;17.118;2022-12-07T07:28:39;7.70;75.50
14877;DHT22;22152;48.158;17.118;2022-12-07T07:31:05;7.70;75.70
14877;DHT22;22152;48.158;17.118;2022-12-07T07:33:31;7.70;75.60
14877;DHT22;22152;48.158;17.118;2022-12-07T07:35:57;7.80;75.50
14877;DHT22;22152;48.158;17.118;2022-12-07T07:38:23;7.60;75.30
14877;DHT22;22152;48.158;17.118;2022-12-07T07:40:48;7.60;75.60
14877;DHT22;22152;48.158;17.118;2022-12-07T07:43:14;7.60;75.80
14877;DHT22;22152;48.158;17.118;2022-12-07T07:45:40;7.60;75.60
14877;DHT22;22152;48.158;17.118;2022-12-07T07:48:06;7.70;75.70
14877;DHT22;22152;48.158;17.118;2022-12-07T07:50:32;7.70;75.50
14877;DHT22;22152;48.158;17.118;2022-12-07T07:53:01;7.80;75.40
14877;DHT22;22152;48.158;17.118;2022-12-07T07:55:27;7.80;75.20
14877;DHT22;22152;48.158;17.118;2022-12-07T07:57:54;7.80;75.10
14877;DHT22;22152;48.158;17.118;2022-12-07T08:00:20;7.90;75.20
14877;DHT22;22152;48.158;17.118;2022-12-07T08:02:58;7.90;75.00
14877;DHT22;22152;48.158;17.118;2022-12-07T08:05:29;7.90;74.90
14877;DHT22;22152;48.158;17.118;2022-12-07T08:07:55;7.90;74.50
14877;DHT22;22152;48.158;17.118;2022-12-07T08:10:22;7.90;74.40
14877;DHT22;22152;48.158;17.118;2022-12-07T08:12:48;7.90;74.60
14877;DHT22;22152;48.158;17.118;2022-12-07T08:15:33;8.00;75.00
14877;DHT22;22152;48.158;17.118;2022-12-07T08:17:58;8.00;75.00
14877;DHT22;22152;48.158;17.118;2022-12-07T08:20:24;8.00;75.00
14877;DHT22;22152;48.158;17.118;2022-12-07T08:22:50;8.00;75.10
14877;DHT22;22152;48.158;17.118;2022-12-07T08:25:17;8.00;75.00
14877;DHT22;22152;48.158;17.118;2022-12-07T08:27:43;8.00;75.90
14877;DHT22;22152;48.158;17.118;2022-12-07T08:30:09;8.00;74.80
14877;DHT22;22152;48.158;17.118;2022-12-07T08:32:35;8.10;74.60
14877;DHT22;22152;48.158;17.118;2022-12-07T08:35:01;8.10;74.50
14877;DHT22;22152;48.158;17.118;2022-12-07T08:37:29;8.10;74.50
14877;DHT22;22152;48.158;17.118;2022-12-07T08:39:57;8.10;74.50
14877;DHT22;22152;48.158;17.118;2022-12-07T08:42:23;8.20;75.40
14877;DHT22;22152;48.158;17.118;2022-12-07T08:44:53;8.30;74.40
14877;DHT22;22152;48.158;17.118;2022-12-07T08:47:19;8.30;74.30
14877;DHT22;22152;48.158;17.118;2022-12-07T08:49:47;8.40;73.70
14877;DHT22;22152;48.158;17.118;2022-12-07T08:52:16;8.50;73.20
14877;DHT22;22152;48.158;17.118;2022-12-07T08:54:42;8.60;73.20
14877;DHT22;22152;48.158;17.118;2022-12-07T08:57:09;8.70;73.00
14877;DHT22;22152;48.158;17.118;2022-12-07T08:59:36;8.80;72.70
14877;DHT22;22152;48.158;17.118;2022-12-07T09:02:04;8.80;72.30
14877;DHT22;22152;48.158;17.118;2022-12-07T09:04:30;8.90;72.50
14877;DHT22;22152;48.158;17.118;2022-12-07T09:06:56;9.00;71.60
14877;DHT22;22152;48.158;17.118;2022-12-07T09:09:23;9.10;71.50
14877;DHT22;22152;48.158;17.118;2022-12-07T09:11:48;9.10;70.90
14877;DHT22;22152;48.158;17.118;2022-12-07T09:14:14;9.20;70.20
14877;DHT22;22152;48.158;17.118;2022-12-07T09:16:40;9.20;70.10
14877;DHT22;22152;48.158;17.118;2022-12-07T09:19:07;9.30;69.30
14877;DHT22;22152;48.158;17.118;2022-12-07T09:21:33;9.30;68.90
14877;DHT22;22152;48.158;17.118;2022-12-07T09:23:59;9.20;68.70
14877;DHT22;22152;48.158;17.118;2022-12-07T09:26:25;9.30;69.10
14877;DHT22;22152;48.158;17.118;2022-12-07T09:28:51;9.30;68.20
14877;DHT22;22152;48.158;17.118;2022-12-07T09:31:17;9.30;67.10
14877;DHT22;22152;48.158;17.118;2022-12-07T09:33:43;9.30;67.40
14877;DHT22;22152;48.158;17.118;2022-12-07T09:36:09;9.30;67.40
14877;DHT22;22152;48.158;17.118;2022-12-07T09:38:35;9.30;66.80
14877;DHT22;22152;48.158;17.118;2022-12-07T09:41:06;9.40;66.50
14877;DHT22;22152;48.158;17.118;2022-12-07T09:43:34;9.50;66.00
14877;DHT22;22152;48.158;17.118;2022-12-07T09:46:03;9.60;65.40
14877;DHT22;22152;48.158;17.118;2022-12-07T09:48:32;9.70;65.00
14877;DHT22;22152;48.158;17.118;2022-12-07T09:53:41;9.70;64.00
14877;DHT22;22152;48.158;17.118;2022-12-07T09:56:12;9.70;64.30
14877;DHT22;22152;48.158;17.118;2022-12-07T09:58:39;9.80;63.90
14877;DHT22;22152;48.158;17.118;2022-12-07T10:03:44;10.20;62.10
14877;DHT22;22152;48.158;17.118;2022-12-07T10:06:13;10.30;61.20
14877;DHT22;22152;48.158;17.118;2022-12-07T10:08:39;10.30;60.60
14877;DHT22;22152;48.158;17.118;2022-12-07T10:11:07;10.40;60.70
14877;DHT22;22152;48.158;17.118;2022-12-07T10:13:43;10.30;60.20
14877;DHT22;22152;48.158;17.118;2022-12-07T10:18:49;10.30;61.10
14877;DHT22;22152;48.158;17.118;2022-12-07T10:21:18;10.30;60.40
14877;DHT22;22152;48.158;17.118;2022-12-07T10:24:13;10.30;58.80
14877;DHT22;22152;48.158;17.118;2022-12-07T10:29:24;10.50;57.30
14877;DHT22;22152;48.158;17.118;2022-12-07T10:34:41;10.70;56.80
14877;DHT22;22152;48.158;17.118;2022-12-07T10:39:48;10.40;55.10
14877;DHT22;22152;48.158;17.118;2022-12-07T10:42:28;10.40;56.00
14877;DHT22;22152;48.158;17.118;2022-12-07T10:45:16;10.50;56.30
14877;DHT22;22152;48.158;17.118;2022-12-07T10:47:51;10.40;55.80
14877;DHT22;22152;48.158;17.118;2022-12-07T10:53:28;10.00;55.70
14877;DHT22;22152;48.158;17.118;2022-12-07T10:59:49;9.70;56.40
14877;DHT22;22152;48.158;17.118;2022-12-07T11:10:41;9.80;56.30
14877;DHT22;22152;48.158;17.118;2022-12-07T11:13:29;9.80;56.30
14877;DHT22;22152;48.158;17.118;2022-12-07T11:22:19;9.50;56.10
14877;DHT22;22152;48.158;17.118;2022-12-07T11:28:12;9.50;56.40
14877;DHT22;22152;48.158;17.118;2022-12-07T11:31:01;9.40;56.40
14877;DHT22;22152;48.158;17.118;2022-12-07T11:33:47;9.40;56.50
14877;DHT22;22152;48.158;17.118;2022-12-07T11:47:47;9.30;56.30
14877;DHT22;22152;48.158;17.118;2022-12-07T12:01:35;9.30;55.00
14877;DHT22;22152;48.158;17.118;2022-12-07T12:06:37;9.40;55.10
14877;DHT22;22152;48.158;17.118;2022-12-07T12:12:44;9.30;54.10
14877;DHT22;22152;48.158;17.118;2022-12-07T12:16:01;9.20;54.00
14877;DHT22;22152;48.158;17.118;2022-12-07T12:18:53;9.10;54.00
14877;DHT22;22152;48.158;17.118;2022-12-07T12:21:30;9.10;54.00
14877;DHT22;22152;48.158;17.118;2022-12-07T12:24:10;9.20;53.90
14877;DHT22;22152;48.158;17.118;2022-12-07T12:29:56;9.10;53.70
14877;DHT22;22152;48.158;17.118;2022-12-07T12:32:42;9.00;53.40
14877;DHT22;22152;48.158;17.118;2022-12-07T12:47:03;9.30;52.70
14877;DHT22;22152;48.158;17.118;2022-12-07T12:49:43;9.30;52.30
14877;DHT22;22152;48.158;17.118;2022-12-07T12:57:36;9.00;52.10
14877;DHT22;22152;48.158;17.118;2022-12-07T13:00:23;8.90;52.40
14877;DHT22;22152;48.158;17.118;2022-12-07T13:02:55;8.80;52.40
14877;DHT22;22152;48.158;17.118;2022-12-07T13:05:33;8.60;52.40
14877;DHT22;22152;48.158;17.118;2022-12-07T13:10:51;8.40;52.90
14877;DHT22;22152;48.158;17.118;2022-12-07T13:15:50;8.10;53.00
14877;DHT22;22152;48.158;17.118;2022-12-07T13:23:39;7.80;52.80
14877;DHT22;22152;48.158;17.118;2022-12-07T13:31:41;7.60;53.50
14877;DHT22;22152;48.158;17.118;2022-12-07T13:34:34;7.60;53.10
14877;DHT22;22152;48.158;17.118;2022-12-07T13:37:15;7.50;53.50
14877;DHT22;22152;48.158;17.118;2022-12-07T13:42:26;7.50;53.90
14877;DHT22;22152;48.158;17.118;2022-12-07T13:44:52;7.50;53.90
14877;DHT22;22152;48.158;17.118;2022-12-07T13:47:41;7.50;53.90
14877;DHT22;22152;48.158;17.118;2022-12-07T13:50:24;7.50;53.90
14877;DHT22;22152;48.158;17.118;2022-12-07T13:52:55;7.60;54.00
14877;DHT22;22152;48.158;17.118;2022-12-07T13:55:22;7.60;54.10
14877;DHT22;22152;48.158;17.118;2022-12-07T13:57:52;7.60;54.70
14877;DHT22;22152;48.158;17.118;2022-12-07T14:00:29;7.60;54.40
14877;DHT22;22152;48.158;17.118;2022-12-07T14:03:01;7.60;54.50
14877;DHT22;22152;48.158;17.118;2022-12-07T14:05:29;7.60;54.70
14877;DHT22;22152;48.158;17.118;2022-12-07T14:15:53;7.60;55.00
14877;DHT22;22152;48.158;17.118;2022-12-07T14:18:37;7.60;54.90
14877;DHT22;22152;48.158;17.118;2022-12-07T14:23:37;7.70;55.10
14877;DHT22;22152;48.158;17.118;2022-12-07T14:26:20;7.80;55.20
14877;DHT22;22152;48.158;17.118;2022-12-07T14:28:46;7.90;55.10
14877;DHT22;22152;48.158;17.118;2022-12-07T14:31:18;7.90;54.90
14877;DHT22;22152;48.158;17.118;2022-12-07T14:33:51;7.80;55.40
14877;DHT22;22152;48.158;17.118;2022-12-07T14:36:17;7.80;55.60
14877;DHT22;22152;48.158;17.118;2022-12-07T14:38:43;7.80;55.90
14877;DHT22;22152;48.158;17.118;2022-12-07T14:41:17;7.80;55.80
14877;DHT22;22152;48.158;17.118;2022-12-07T14:44:14;7.80;56.20
14877;DHT22;22152;48.158;17.118;2022-12-07T14:46:39;7.80;56.50
14877;DHT22;22152;48.158;17.118;2022-12-07T14:49:05;7.80;56.40
14877;DHT22;22152;48.158;17.118;2022-12-07T14:51:32;7.80;56.40
14877;DHT22;22152;48.158;17.118;2022-12-07T14:53:59;7.80;56.60
14877;DHT22;22152;48.158;17.118;2022-12-07T14:56:25;7.80;56.60
14877;DHT22;22152;48.158;17.118;2022-12-07T14:58:53;7.80;56.80
14877;DHT22;22152;48.158;17.118;2022-12-07T15:01:19;7.80;56.90
14877;DHT22;22152;48.158;17.118;2022-12-07T15:03:45;7.70;56.80
14877;DHT22;22152;48.158;17.118;2022-12-07T15:06:14;7.70;56.80
14877;DHT22;22152;48.158;17.118;2022-12-07T15:08:41;7.70;56.90
14877;DHT22;22152;48.158;17.118;2022-12-07T15:11:13;7.60;56.90
14877;DHT22;22152;48.158;17.118;2022-12-07T15:13:39;7.50;57.00
14877;DHT22;22152;48.158;17.118;2022-12-07T15:16:23;7.50;57.10
14877;DHT22;22152;48.158;17.118;2022-12-07T15:18:49;7.40;57.20
14877;DHT22;22152;48.158;17.118;2022-12-07T15:21:15;7.30;57.40
14877;DHT22;22152;48.158;17.118;2022-12-07T15:23:42;7.10;57.60
14877;DHT22;22152;48.158;17.118;2022-12-07T15:26:10;7.00;57.90
14877;DHT22;22152;48.158;17.118;2022-12-07T15:28:36;6.90;58.10
14877;DHT22;22152;48.158;17.118;2022-12-07T15:31:01;6.80;58.30
14877;DHT22;22152;48.158;17.118;2022-12-07T15:33:27;6.70;58.50
14877;DHT22;22152;48.158;17.118;2022-12-07T15:35:53;6.70;58.80
14877;DHT22;22152;48.158;17.118;2022-12-07T15:38:19;6.60;59.00
14877;DHT22;22152;48.158;17.118;2022-12-07T15:40:49;6.60;59.10
14877;DHT22;22152;48.158;17.118;2022-12-07T15:43:16;6.60;59.30
14877;DHT22;22152;48.158;17.118;2022-12-07T15:46:00;6.70;59.40
14877;DHT22;22152;48.158;17.118;2022-12-07T15:48:26;6.70;59.50
14877;DHT22;22152;48.158;17.118;2022-12-07T15:50:52;6.80;59.50
14877;DHT22;22152;48.158;17.118;2022-12-07T15:53:18;6.80;59.50
14877;DHT22;22152;48.158;17.118;2022-12-07T15:55:43;6.80;59.50
14877;DHT22;22152;48.158;17.118;2022-12-07T15:58:09;6.80;59.30
14877;DHT22;22152;48.158;17.118;2022-12-07T16:00:40;6.80;59.40
14877;DHT22;22152;48.158;17.118;2022-12-07T16:03:06;6.80;59.30
14877;DHT22;22152;48.158;17.118;2022-12-07T16:05:32;6.80;59.50
14877;DHT22;22152;48.158;17.118;2022-12-07T16:07:58;6.80;59.60
14877;DHT22;22152;48.158;17.118;2022-12-07T16:10:24;6.80;59.70
14877;DHT22;22152;48.158;17.118;2022-12-07T16:12:50;6.70;59.50
14877;DHT22;22152;48.158;17.118;2022-12-07T16:15:16;6.70;59.40
14877;DHT22;22152;48.158;17.118;2022-12-07T16:17:42;6.70;59.60
14877;DHT22;22152;48.158;17.118;2022-12-07T16:20:08;6.80;59.60
14877;DHT22;22152;48.158;17.118;2022-12-07T16:22:35;6.90;59.50
14877;DHT22;22152;48.158;17.118;2022-12-07T16:25:01;6.90;59.30
14877;DHT22;22152;48.158;17.118;2022-12-07T16:27:26;6.90;59.20
14877;DHT22;22152;48.158;17.118;2022-12-07T16:29:52;7.00;59.30
14877;DHT22;22152;48.158;17.118;2022-12-07T16:32:18;7.00;59.10
14877;DHT22;22152;48.158;17.118;2022-12-07T16:34:44;7.10;59.10
14877;DHT22;22152;48.158;17.118;2022-12-07T16:37:10;7.10;58.90
14877;DHT22;22152;48.158;17.118;2022-12-07T16:39:36;7.20;58.70
14877;DHT22;22152;48.158;17.118;2022-12-07T16:42:02;7.20;58.60
14877;DHT22;22152;48.158;17.118;2022-12-07T16:44:28;7.30;58.60
14877;DHT22;22152;48.158;17.118;2022-12-07T16:46:53;7.30;58.30
14877;DHT22;22152;48.158;17.118;2022-12-07T16:49:19;7.30;58.40
14877;DHT22;22152;48.158;17.118;2022-12-07T16:51:46;7.30;58.40
14877;DHT22;22152;48.158;17.118;2022-12-07T16:54:14;7.30;58.50
14877;DHT22;22152;48.158;17.118;2022-12-07T16:56:40;7.30;59.10
14877;DHT22;22152;48.158;17.118;2022-12-07T16:59:07;7.30;58.40
14877;DHT22;22152;48.158;17.118;2022-12-07T17:01:33;7.30;59.00
14877;DHT22;22152;48.158;17.118;2022-12-07T17:03:59;7.30;58.60
14877;DHT22;22152;48.158;17.118;2022-12-07T17:06:27;7.30;58.50
14877;DHT22;22152;48.158;17.118;2022-12-07T17:08:54;7.30;58.50
14877;DHT22;22152;48.158;17.118;2022-12-07T17:11:26;7.40;58.50
14877;DHT22;22152;48.158;17.118;2022-12-07T17:13:54;7.40;58.50
14877;DHT22;22152;48.158;17.118;2022-12-07T17:16:39;7.40;58.50
14877;DHT22;22152;48.158;17.118;2022-12-07T17:19:06;7.30;58.50
14877;DHT22;22152;48.158;17.118;2022-12-07T17:21:34;7.30;58.70
14877;DHT22;22152;48.158;17.118;2022-12-07T17:24:01;7.30;58.90
14877;DHT22;22152;48.158;17.118;2022-12-07T17:26:29;7.30;58.90
14877;DHT22;22152;48.158;17.118;2022-12-07T17:28:55;7.30;59.00
14877;DHT22;22152;48.158;17.118;2022-12-07T17:31:23;7.30;59.00
14877;DHT22;22152;48.158;17.118;2022-12-07T17:33:50;7.30;58.90
14877;DHT22;22152;48.158;17.118;2022-12-07T17:36:32;7.30;59.00
14877;DHT22;22152;48.158;17.118;2022-12-07T17:38:58;7.30;59.00
14877;DHT22;22152;48.158;17.118;2022-12-07T17:41:26;7.30;58.90
14877;DHT22;22152;48.158;17.118;2022-12-07T17:44:16;7.30;58.90
14877;DHT22;22152;48.158;17.118;2022-12-07T17:46:44;7.30;58.90
14877;DHT22;22152;48.158;17.118;2022-12-07T17:49:13;7.40;59.00
14877;DHT22;22152;48.158;17.118;2022-12-07T17:51:39;7.30;58.90
14877;DHT22;22152;48.158;17.118;2022-12-07T17:54:23;7.40;58.90
14877;DHT22;22152;48.158;17.118;2022-12-07T17:56:49;7.40;58.90
14877;DHT22;22152;48.158;17.118;2022-12-07T17:59:16;7.30;58.70
14877;DHT22;22152;48.158;17.118;2022-12-07T18:01:42;7.30;58.90
14877;DHT22;22152;48.158;17.118;2022-12-07T18:04:09;7.30;58.90
14877;DHT22;22152;48.158;17.118;2022-12-07T18:06:35;7.30;58.80
14877;DHT22;22152;48.158;17.118;2022-12-07T18:09:02;7.30;58.70
14877;DHT22;22152;48.158;17.118;2022-12-07T18:11:28;7.30;58.50
14877;DHT22;22152;48.158;17.118;2022-12-07T18:13:54;7.30;58.60
14877;DHT22;22152;48.158;17.118;2022-12-07T18:16:22;7.20;58.50
14877;DHT22;22152;48.158;17.118;2022-12-07T18:18:50;7.30;59.30
14877;DHT22;22152;48.158;17.118;2022-12-07T18:21:26;7.30;58.60